createdAt,value
2018-08-22T00:00:35.653Z,79.47
2018-08-22T00:01:35.759Z,79.28
2018-08-22T00:02:35.692Z,79.75
2018-08-22T00:03:35.723Z,79.75
2018-08-22T00:04:35.741Z,79.57
2018-08-22T00:05:35.761Z,79.47
2018-08-22T00:06:35.784Z,79.81
2018-08-22T00:07:35.808Z,79.85
2018-08-22T00:08:35.828Z,79.81
2018-08-22T00:09:35.853Z,79.57
2018-08-22T00:10:35.880Z,80.24
2018-08-22T00:11:35.896Z,80.29
2018-08-22T00:12:35.920Z,80.19
2018-08-22T00:13:35.942Z,80
2018-08-22T00:14:50.630Z,79.91
2018-08-22T00:15:35.990Z,80.1
2018-08-22T00:16:35.754Z,80.1
2018-08-22T00:17:36.035Z,80.29
2018-08-22T00:18:36.057Z,80.38
2018-08-22T00:20:36.102Z,80
2018-08-22T00:21:36.124Z,80.77
2018-08-22T00:22:36.369Z,80.19
2018-08-22T00:23:36.171Z,80.67
2018-08-22T00:24:36.192Z,80.38
2018-08-22T00:25:36.221Z,80.67
2018-08-22T00:27:36.261Z,80.96
2018-08-22T00:28:36.283Z,81.25
2018-08-22T00:29:36.308Z,81.15
2018-08-22T00:30:50.993Z,81.05
2018-08-22T00:31:36.354Z,81.05
2018-08-22T00:32:36.376Z,81.44
2018-08-22T00:33:36.397Z,81.54
2018-08-22T00:34:36.420Z,81.54
2018-08-22T00:35:36.441Z,81.34
2018-08-22T00:36:36.465Z,81.54
2018-08-22T00:37:36.487Z,81.15
2018-08-22T00:38:36.254Z,81.63
2018-08-22T00:39:36.532Z,81.63
2018-08-22T00:40:36.558Z,81.82
2018-08-22T00:41:36.578Z,81.73
2018-08-22T00:42:36.602Z,82.2
2018-08-22T00:43:36.624Z,82.26
2018-08-22T00:44:36.651Z,81.68
2018-08-22T00:45:36.669Z,82.35
2018-08-22T00:46:51.357Z,82.2
2018-08-22T00:47:36.713Z,82.64
2018-08-22T00:48:36.736Z,82.74
2018-08-22T00:49:36.760Z,82.59
2018-08-22T00:50:36.780Z,82.78
2018-08-22T00:51:36.805Z,82.74
2018-08-22T00:52:36.572Z,82.93
2018-08-22T00:53:36.850Z,83.5
2018-08-22T00:54:36.873Z,83.69
2018-08-22T00:55:36.896Z,83.4
2018-08-22T00:56:36.923Z,83.12
2018-08-22T00:57:36.943Z,83.5
2018-08-22T00:59:36.730Z,83.69
2018-08-22T01:00:37.009Z,83.5
2018-08-22T01:01:36.776Z,83.5
2018-08-22T01:02:51.718Z,83.79
2018-08-22T01:03:37.079Z,83.79
2018-08-22T01:04:37.103Z,84.17
2018-08-22T01:05:37.124Z,83.79
2018-08-22T01:06:36.887Z,83.69
2018-08-22T01:07:37.167Z,84.36
2018-08-22T01:08:37.189Z,83.6
2018-08-22T01:09:37.212Z,83.69
2018-08-22T01:10:37.235Z,83.4
2018-08-22T01:11:37.256Z,83.89
2018-08-22T01:12:37.023Z,84.36
2018-08-22T01:14:37.325Z,84.27
2018-08-22T01:15:37.093Z,84.17
2018-08-22T01:16:37.369Z,84.36
2018-08-22T01:17:52.057Z,84.17
2018-08-22T01:18:37.415Z,84.46
2018-08-22T01:19:37.439Z,84.55
2018-08-22T01:20:37.461Z,84.17
2018-08-22T01:21:37.484Z,84.08
2018-08-22T01:22:37.507Z,84.36
2018-08-22T01:23:37.528Z,84.27
2018-08-22T01:24:37.551Z,84.36
2018-08-22T01:25:37.577Z,83.69
2018-08-22T01:27:37.622Z,84.36
2018-08-22T01:28:37.641Z,84.08
2018-08-22T01:29:37.669Z,84.17
2018-08-22T01:30:37.691Z,84.27
2018-08-22T01:31:37.736Z,84.27
2018-08-22T01:32:37.733Z,84.55
2018-08-22T01:33:37.496Z,84.17
2018-08-22T01:34:37.775Z,84.55
2018-08-22T01:35:37.799Z,84.27
2018-08-22T01:36:37.820Z,84.55
2018-08-22T01:37:37.841Z,84.46
2018-08-22T01:38:37.863Z,84.17
2018-08-22T01:39:37.889Z,84.46
2018-08-22T01:40:37.910Z,84.08
2018-08-22T01:41:37.933Z,84.75
2018-08-22T01:42:37.955Z,85.13
2018-08-22T01:43:37.977Z,84.84
2018-08-22T01:44:37.999Z,85.32
2018-08-22T01:45:38.024Z,85.75
2018-08-22T01:46:38.045Z,85.61
2018-08-22T01:47:38.068Z,85.66
2018-08-22T01:48:38.088Z,85.57
2018-08-22T01:49:52.795Z,85.38
2018-08-22T01:50:37.876Z,85.94
2018-08-22T01:51:38.157Z,86.14
2018-08-22T01:52:38.183Z,86.04
2018-08-22T01:53:38.201Z,86.33
2018-08-22T01:54:38.223Z,85.75
2018-08-22T01:55:37.991Z,85.85
2018-08-22T01:56:38.270Z,86.52
2018-08-22T01:57:38.291Z,86.33
2018-08-22T01:58:38.333Z,86.43
2018-08-22T01:59:38.077Z,86.71
2018-08-22T02:01:38.379Z,87.09
2018-08-22T02:02:38.145Z,87.19
2018-08-22T02:03:38.424Z,87.29
2018-08-22T02:04:38.446Z,86.9
2018-08-22T02:05:53.132Z,87.38
2018-08-22T02:06:38.492Z,87.09
2018-08-22T02:07:38.513Z,87.38
2018-08-22T02:08:38.535Z,87.76
2018-08-22T02:09:38.562Z,88.15
2018-08-22T02:10:38.579Z,87.62
2018-08-22T02:11:38.602Z,87.91
2018-08-22T02:12:38.624Z,88.01
2018-08-22T02:14:38.668Z,88.29
2018-08-22T02:15:38.697Z,88.29
2018-08-22T02:17:38.740Z,88.68
2018-08-22T02:18:38.503Z,88.58
2018-08-22T02:19:38.522Z,88.77
2018-08-22T02:20:38.801Z,88.58
2018-08-22T02:21:53.490Z,88.87
2018-08-22T02:22:38.590Z,89.15
2018-08-22T02:23:38.873Z,89.73
2018-08-22T02:24:38.890Z,89.44
2018-08-22T02:25:38.917Z,89.82
2018-08-22T02:26:38.946Z,89.82
2018-08-22T02:27:38.963Z,89.63
2018-08-22T02:28:38.983Z,89.82
2018-08-22T02:30:39.027Z,90.11
2018-08-22T02:31:39.051Z,90.11
2018-08-22T02:32:39.074Z,90.3
2018-08-22T02:33:39.092Z,90.49
2018-08-22T02:34:39.116Z,90.01
2018-08-22T02:35:39.140Z,90.59
2018-08-22T02:36:39.160Z,90.88
2018-08-22T02:37:53.846Z,90.78
2018-08-22T02:38:39.207Z,90.2
2018-08-22T02:39:39.228Z,90.59
2018-08-22T02:40:39.248Z,90.78
2018-08-22T02:41:39.015Z,90.11
2018-08-22T02:42:39.293Z,90.2
2018-08-22T02:43:39.317Z,90.2
2018-08-22T02:44:39.336Z,90.49
2018-08-22T02:45:39.101Z,90.59
2018-08-22T02:46:39.385Z,90.68
2018-08-22T02:47:39.403Z,91.06
2018-08-22T02:48:39.428Z,90.49
2018-08-22T02:49:39.446Z,90.88
2018-08-22T02:50:39.469Z,90.01
2018-08-22T02:51:39.492Z,90.97
2018-08-22T02:52:54.175Z,90.68
2018-08-22T02:53:39.277Z,90.88
2018-08-22T02:54:39.559Z,90.59
2018-08-22T02:55:39.583Z,91.16
2018-08-22T02:56:39.602Z,91.25
2018-08-22T02:57:39.628Z,91.45
2018-08-22T02:58:39.642Z,91.78
2018-08-22T02:59:39.672Z,91.88
2018-08-22T03:01:39.715Z,91.97
2018-08-22T03:02:39.738Z,92.36
2018-08-22T03:03:39.756Z,92.36
2018-08-22T03:04:39.780Z,92.36
2018-08-22T03:05:39.802Z,92.45
2018-08-22T03:06:39.822Z,92.55
2018-08-22T03:07:39.842Z,93.02
2018-08-22T03:09:39.900Z,93.02
2018-08-22T03:10:39.911Z,93.21
2018-08-22T03:12:39.954Z,93.7
2018-08-22T03:13:39.976Z,93.31
2018-08-22T03:14:40.011Z,93.6
2018-08-22T03:15:40.027Z,93.31
2018-08-22T03:16:40.047Z,93.5
2018-08-22T03:19:40.207Z,93.7
2018-08-22T03:20:40.129Z,94.07
2018-08-22T03:21:40.155Z,94.36
2018-08-22T03:22:40.174Z,94.74
2018-08-22T03:23:40.196Z,94.27
2018-08-22T03:24:54.878Z,95.03
2018-08-22T03:25:40.238Z,94.84
2018-08-22T03:26:40.263Z,94.74
2018-08-22T03:27:40.283Z,94.84
2018-08-22T03:28:40.305Z,94.84
2018-08-22T03:29:40.331Z,94.46
2018-08-22T03:30:40.092Z,94.27
2018-08-22T03:31:40.373Z,94.17
2018-08-22T03:32:40.134Z,94.93
2018-08-22T03:33:40.421Z,95.12
2018-08-22T03:34:40.436Z,94.74
2018-08-22T03:35:40.458Z,95.32
2018-08-22T03:36:40.479Z,94.93
2018-08-22T03:37:40.502Z,95.17
2018-08-22T03:38:40.522Z,95.17
2018-08-22T03:39:40.548Z,95.12
2018-08-22T03:40:55.228Z,95.22
2018-08-22T03:41:40.587Z,95.22
2018-08-22T03:42:40.608Z,95.22
2018-08-22T03:43:40.373Z,95.22
2018-08-22T03:44:40.654Z,95.17
2018-08-22T03:45:40.676Z,95.65
2018-08-22T03:46:40.697Z,95.75
2018-08-22T03:47:40.719Z,95.84
2018-08-22T03:48:40.739Z,95.56
2018-08-22T03:49:40.761Z,95.65
2018-08-22T03:51:40.808Z,96.03
2018-08-22T03:52:40.828Z,96.22
2018-08-22T03:53:40.594Z,95.75
2018-08-22T03:54:40.871Z,95.84
2018-08-22T03:55:40.637Z,95.75
2018-08-22T03:56:55.576Z,95.84
2018-08-22T03:57:40.935Z,95.98
2018-08-22T03:58:40.961Z,95.79
2018-08-22T03:59:40.723Z,95.89
2018-08-22T04:00:41.003Z,96.03
2018-08-22T04:01:41.029Z,95.89
2018-08-22T04:02:40.788Z,95.98
2018-08-22T04:03:40.820Z,95.84
2018-08-22T04:04:40.831Z,96.37
2018-08-22T04:05:41.110Z,96.32
2018-08-22T04:06:40.874Z,96.03
2018-08-22T04:07:40.897Z,96.03
2018-08-22T04:08:40.918Z,96.37
2018-08-22T04:09:41.202Z,96.42
2018-08-22T04:10:41.218Z,96.22
2018-08-22T04:11:41.240Z,96.42
2018-08-22T04:12:55.923Z,96.56
2018-08-22T04:13:41.281Z,96.17
2018-08-22T04:14:41.304Z,96.08
2018-08-22T04:15:41.331Z,95.89
2018-08-22T04:16:41.348Z,95.98
2018-08-22T04:17:41.118Z,96.08
2018-08-22T04:18:41.399Z,96.27
2018-08-22T04:19:41.413Z,96.37
2018-08-22T04:20:41.435Z,96.17
2018-08-22T04:21:41.455Z,96.08
2018-08-22T04:22:41.477Z,96.37
2018-08-22T04:23:41.500Z,96.17
2018-08-22T04:24:41.263Z,96.66
2018-08-22T04:25:41.548Z,96.27
2018-08-22T04:26:41.568Z,96.56
2018-08-22T04:27:56.248Z,96.17
2018-08-22T04:28:41.612Z,96.08
2018-08-22T04:29:41.632Z,96.27
2018-08-22T04:30:41.654Z,96.17
2018-08-22T04:31:41.679Z,95.89
2018-08-22T04:32:41.696Z,96.08
2018-08-22T04:33:41.719Z,96.27
2018-08-22T04:34:41.741Z,96.56
2018-08-22T04:35:41.763Z,96.27
2018-08-22T04:36:41.525Z,95.98
2018-08-22T04:37:41.803Z,96.17
2018-08-22T04:38:41.826Z,96.08
2018-08-22T04:39:41.596Z,95.89
2018-08-22T04:40:41.616Z,95.61
2018-08-22T04:41:41.893Z,95.61
2018-08-22T04:42:41.656Z,95.32
2018-08-22T04:43:41.941Z,95.61
2018-08-22T04:44:41.700Z,95.51
2018-08-22T04:45:41.979Z,95.7
2018-08-22T04:46:41.744Z,95.36
2018-08-22T04:47:41.766Z,95.17
2018-08-22T04:48:41.788Z,94.7
2018-08-22T04:49:42.070Z,94.51
2018-08-22T04:50:42.092Z,94.12
2018-08-22T04:51:42.110Z,93.93
2018-08-22T04:52:41.876Z,93.31
2018-08-22T04:53:41.897Z,92.45
2018-08-22T04:54:42.178Z,91.97
2018-08-22T04:55:42.201Z,90.92
2018-08-22T04:56:42.226Z,90.39
2018-08-22T04:57:42.249Z,87.08
2018-08-22T04:58:42.265Z,85.16
2018-08-22T04:59:56.954Z,81.85
2018-08-22T05:00:42.314Z,80.3
2018-08-22T05:01:42.339Z,77.46
2018-08-22T05:02:42.362Z,75.2
2018-08-22T05:03:42.385Z,74.33
2018-08-22T05:04:42.407Z,72.92
2018-08-22T05:05:42.431Z,71.42
2018-08-22T05:06:42.198Z,69.82
2018-08-22T05:08:42.507Z,67.29
2018-08-22T05:09:42.537Z,65.69
2018-08-22T05:10:42.557Z,64.73
2018-08-22T05:11:42.585Z,63.79
2018-08-22T05:12:42.350Z,62.76
2018-08-22T05:13:42.375Z,62.66
2018-08-22T05:14:42.658Z,62.28
2018-08-22T05:15:57.353Z,60.93
2018-08-22T05:16:42.721Z,61.03
2018-08-22T05:17:42.736Z,61.16
2018-08-22T05:18:42.765Z,60.38
2018-08-22T05:19:42.790Z,59.71
2018-08-22T05:20:42.816Z,60.19
2018-08-22T05:21:42.846Z,60.28
2018-08-22T05:23:42.897Z,59.52
2018-08-22T05:24:43.067Z,58.87
2018-08-22T05:25:42.959Z,58.51
2018-08-22T05:26:43.044Z,57.64
2018-08-22T05:27:43.009Z,56.51
2018-08-22T05:28:43.042Z,56.22
2018-08-22T05:29:42.805Z,55.65
2018-08-22T05:30:42.836Z,55.19
2018-08-22T05:31:57.782Z,54.32
2018-08-22T05:32:43.148Z,54.25
2018-08-22T05:33:43.176Z,54.53
2018-08-22T05:34:42.948Z,53.79
2018-08-22T05:35:43.234Z,53.69
2018-08-22T05:36:43.264Z,53.89
2018-08-22T05:37:43.293Z,53.47
2018-08-22T05:38:43.329Z,52.56
2018-08-22T05:40:43.547Z,52.08
2018-08-22T05:41:43.411Z,52.08
2018-08-22T05:42:43.444Z,52
2018-08-22T05:43:43.573Z,50.74
2018-08-22T05:44:43.503Z,50.35
2018-08-22T05:45:43.535Z,50.09
2018-08-22T05:46:43.567Z,49.7
2018-08-22T05:47:58.257Z,49.34
2018-08-22T05:48:43.624Z,48.78
2018-08-22T05:49:43.656Z,47.74
2018-08-22T05:50:43.686Z,47.45
2018-08-22T05:51:43.718Z,47.38
2018-08-22T05:52:43.747Z,47.18
2018-08-22T05:53:43.787Z,47.47
2018-08-22T05:54:43.813Z,46.79
2018-08-22T05:55:43.844Z,47.11
2018-08-22T05:56:43.883Z,45.94
2018-08-22T05:57:44.099Z,46.42
2018-08-22T05:58:43.942Z,46.62
2018-08-22T05:59:43.977Z,47.08
2018-08-22T06:00:44.006Z,46.04
2018-08-22T06:01:44.039Z,45.77
2018-08-22T06:02:58.735Z,46.14
2018-08-22T06:03:44.104Z,46.91
2018-08-22T06:04:44.137Z,46.42
2018-08-22T06:05:43.915Z,46.42
2018-08-22T06:06:44.216Z,46.31
2018-08-22T06:07:44.237Z,46.79
2018-08-22T06:08:44.279Z,46.72
2018-08-22T06:11:44.370Z,45.77
2018-08-22T06:12:44.146Z,45.21
2018-08-22T06:13:44.438Z,45.4
2018-08-22T06:14:44.472Z,44.43
2018-08-22T06:15:44.593Z,45.01
2018-08-22T06:16:44.283Z,43.85
2018-08-22T06:17:44.574Z,44.33
2018-08-22T06:18:44.607Z,45.48
2018-08-22T06:19:44.642Z,46.23
2018-08-22T06:20:44.676Z,45.75
2018-08-22T06:21:44.708Z,45.94
2018-08-22T06:22:44.745Z,45.84
2018-08-22T06:23:44.777Z,46.5
2018-08-22T06:24:44.815Z,46.79
2018-08-22T06:25:44.851Z,46.6
2018-08-22T06:26:44.881Z,46.41
2018-08-22T06:27:44.916Z,45.94
2018-08-22T06:28:44.950Z,45.17
2018-08-22T06:29:44.987Z,44.14
2018-08-22T06:30:45.023Z,43.75
2018-08-22T06:31:45.054Z,43.87
2018-08-22T06:32:45.088Z,42.43
2018-08-22T06:33:45.124Z,42.65
2018-08-22T06:34:59.822Z,41.94
2018-08-22T06:35:45.194Z,41.57
2018-08-22T06:36:45.229Z,41.77
2018-08-22T06:37:45.288Z,41.6
2018-08-22T06:38:45.328Z,41.32
2018-08-22T06:39:45.331Z,40.93
2018-08-22T06:40:45.369Z,40.45
2018-08-22T06:41:45.404Z,40.64
2018-08-22T06:42:45.437Z,41.89
2018-08-22T06:43:45.477Z,42.55
2018-08-22T06:45:45.541Z,42.84
2018-08-22T06:46:45.582Z,42.63
2018-08-22T06:47:45.619Z,41.36
2018-08-22T06:48:45.651Z,42.16
2018-08-22T06:49:45.686Z,42.14
2018-08-22T06:51:00.393Z,42.99
2018-08-22T06:51:45.501Z,42.7
2018-08-22T06:52:45.794Z,42.8
2018-08-22T06:53:45.830Z,42.43
2018-08-22T06:54:45.608Z,42.24
2018-08-22T06:55:45.641Z,42.45
2018-08-22T06:56:45.936Z,41.46
2018-08-22T06:57:45.976Z,42.16
2018-08-22T06:58:46.009Z,41.01
2018-08-22T06:59:45.785Z,40.64
2018-08-22T07:00:46.079Z,40.64
2018-08-22T07:01:46.121Z,41.3
2018-08-22T07:02:46.256Z,40.81
2018-08-22T07:03:46.185Z,41.01
2018-08-22T07:04:46.221Z,41.69
2018-08-22T07:05:46.005Z,41.77
2018-08-22T07:07:00.958Z,40.93
2018-08-22T07:07:46.073Z,40.81
2018-08-22T07:08:46.365Z,40.06
2018-08-22T07:09:46.404Z,40.08
2018-08-22T07:10:46.438Z,39.78
2018-08-22T07:11:46.474Z,39.2
2018-08-22T07:12:46.512Z,38.61
2018-08-22T07:13:46.546Z,38.63
2018-08-22T07:14:46.582Z,39.37
2018-08-22T07:15:46.618Z,39.49
2018-08-22T07:16:46.656Z,39.76
2018-08-22T07:18:46.728Z,38.35
2018-08-22T07:19:46.764Z,37.79
2018-08-22T07:20:46.846Z,37.3
2018-08-22T07:21:46.837Z,37.7
2018-08-22T07:23:01.540Z,37.52
2018-08-22T07:23:46.650Z,37.41
2018-08-22T07:24:46.687Z,36.26
2018-08-22T07:25:46.981Z,36.34
2018-08-22T07:26:47.018Z,35.77
2018-08-22T07:27:46.798Z,35.38
2018-08-22T07:28:47.088Z,35.32
2018-08-22T07:29:47.232Z,35.4
2018-08-22T07:30:47.165Z,35.79
2018-08-22T07:31:47.206Z,35.87
2018-08-22T07:33:47.278Z,35.97
2018-08-22T07:34:47.312Z,35.58
2018-08-22T07:35:47.477Z,35.85
2018-08-22T07:36:47.395Z,35.68
2018-08-22T07:38:02.089Z,34.44
2018-08-22T07:38:47.203Z,34.06
2018-08-22T07:39:47.497Z,34.08
2018-08-22T07:40:47.537Z,34.16
2018-08-22T07:41:47.313Z,33.69
2018-08-22T07:42:47.350Z,34.55
2018-08-22T07:43:47.645Z,33.95
2018-08-22T07:44:47.681Z,34.05
2018-08-22T07:45:47.718Z,34.05
2018-08-22T07:47:47.789Z,35.01
2018-08-22T07:48:47.830Z,34.74
2018-08-22T07:49:47.867Z,34.36
2018-08-22T07:50:47.907Z,33.97
2018-08-22T07:51:47.940Z,34.91
2018-08-22T07:52:47.719Z,35.3
2018-08-22T07:53:48.015Z,34.81
2018-08-22T07:54:48.055Z,35.38
2018-08-22T07:55:48.092Z,34.8
2018-08-22T07:56:48.126Z,35.19
2018-08-22T07:57:47.901Z,35.19
2018-08-22T07:58:47.939Z,35.01
2018-08-22T07:59:48.234Z,35.22
2018-08-22T08:00:48.271Z,34.34
2018-08-22T08:01:48.442Z,35.4
2018-08-22T08:02:48.087Z,35.28
2018-08-22T08:03:48.382Z,34.7
2018-08-22T08:04:48.416Z,34.8
2018-08-22T08:05:48.462Z,34.23
2018-08-22T08:06:48.232Z,34.74
2018-08-22T08:07:48.269Z,34.05
2018-08-22T08:08:48.775Z,33.39
2018-08-22T08:10:03.263Z,32.71
2018-08-22T08:10:48.754Z,33.2
2018-08-22T08:11:48.773Z,32.22
2018-08-22T08:12:48.710Z,32.81
2018-08-22T08:13:48.741Z,33.2
2018-08-22T08:14:48.781Z,33.36
2018-08-22T08:15:48.817Z,33.56
2018-08-22T08:16:48.853Z,33.46
2018-08-22T08:17:48.928Z,33.82
2018-08-22T08:18:48.927Z,34.03
2018-08-22T08:20:48.995Z,34.03
2018-08-22T08:21:49.039Z,33.75
2018-08-22T08:22:48.813Z,33.17
2018-08-22T08:23:49.106Z,33.26
2018-08-22T08:24:49.151Z,33.05
2018-08-22T08:26:03.871Z,32.39
2018-08-22T08:26:49.212Z,32.4
2018-08-22T08:27:48.992Z,32.32
2018-08-22T08:28:49.289Z,32.3
2018-08-22T08:29:49.323Z,32.7
2018-08-22T08:30:49.361Z,32.79
2018-08-22T08:31:49.394Z,32.3
2018-08-22T08:32:49.429Z,32.1
2018-08-22T08:33:49.466Z,32.03
2018-08-22T08:34:49.242Z,31.65
2018-08-22T08:35:49.631Z,30.96
2018-08-22T08:36:49.574Z,30.67
2018-08-22T08:37:49.626Z,30.58
2018-08-22T08:38:49.642Z,29.72
2018-08-22T08:39:49.679Z,29.9
2018-08-22T08:40:49.716Z,30.67
2018-08-22T08:42:04.438Z,30.47
2018-08-22T08:42:49.787Z,30.68
2018-08-22T08:43:49.824Z,29.8
2018-08-22T08:44:49.863Z,30.29
2018-08-22T08:45:49.638Z,30.65
2018-08-22T08:46:49.930Z,31.04
2018-08-22T08:47:49.707Z,30.77
2018-08-22T08:48:50.017Z,30.49
2018-08-22T08:49:50.050Z,30.77
2018-08-22T08:50:50.092Z,32.03
2018-08-22T08:51:50.108Z,31.8
2018-08-22T08:52:50.141Z,31.71
2018-08-22T08:53:50.202Z,30.85
2018-08-22T08:54:50.255Z,30.55
2018-08-22T08:55:50.248Z,30.27
2018-08-22T08:56:50.288Z,29.88
2018-08-22T08:58:04.989Z,30.01
2018-08-22T08:58:50.351Z,29.82
2018-08-22T08:59:50.133Z,29.52
2018-08-22T09:00:50.452Z,29.8
2018-08-22T09:01:50.458Z,30.1
2018-08-22T09:02:50.496Z,28.34
2018-08-22T09:03:50.713Z,28.08
2018-08-22T09:04:50.582Z,27.51
2018-08-22T09:05:50.601Z,27.49
2018-08-22T09:06:50.637Z,27.88
2018-08-22T09:07:50.672Z,28.26
2018-08-22T09:08:50.709Z,28.47
2018-08-22T09:09:50.741Z,27.88
2018-08-22T09:10:51.212Z,28.17
2018-08-22T09:11:50.813Z,28.44
2018-08-22T09:13:05.519Z,28.36
2018-08-22T09:13:50.628Z,28.97
2018-08-22T09:14:50.916Z,28.67
2018-08-22T09:15:50.958Z,28.75
2018-08-22T09:16:50.989Z,28.55
2018-08-22T09:17:51.025Z,27.89
2018-08-22T09:18:50.807Z,27.81
2018-08-22T09:19:51.119Z,28.47
2018-08-22T09:20:50.892Z,28.67
2018-08-22T09:22:51.208Z,28.64
2018-08-22T09:23:51.233Z,28.44
2018-08-22T09:24:51.267Z,28.74
2018-08-22T09:25:51.307Z,28.47
2018-08-22T09:26:51.338Z,27.89
2018-08-22T09:27:51.374Z,27.71
2018-08-22T09:28:51.413Z,27.91
2018-08-22T09:29:51.456Z,28.47
2018-08-22T09:30:51.479Z,29.43
2018-08-22T09:31:51.259Z,29.21
2018-08-22T09:32:51.288Z,29.22
2018-08-22T09:33:51.658Z,29.24
2018-08-22T09:34:51.622Z,28.55
2018-08-22T09:35:51.733Z,28.47
2018-08-22T09:36:51.707Z,28.78
2018-08-22T09:37:51.462Z,27.91
2018-08-22T09:38:51.757Z,27.43
2018-08-22T09:39:51.953Z,26.54
2018-08-22T09:40:51.824Z,26.56
2018-08-22T09:41:51.601Z,25.38
2018-08-22T09:42:51.893Z,26.54
2018-08-22T09:43:51.931Z,26.92
2018-08-22T09:45:06.627Z,26.92
2018-08-22T09:45:51.997Z,26.74
2018-08-22T09:47:52.090Z,25.67
2018-08-22T09:48:52.099Z,25.57
2018-08-22T09:49:52.134Z,25.27
2018-08-22T09:50:52.237Z,25.85
2018-08-22T09:51:52.203Z,25.56
2018-08-22T09:52:51.983Z,25.46
2018-08-22T09:53:52.324Z,25.05
2018-08-22T09:54:52.100Z,24.19
2018-08-22T09:55:52.343Z,23.93
2018-08-22T09:56:52.376Z,23.93
2018-08-22T09:57:52.154Z,24.13
2018-08-22T09:58:52.445Z,24.69
2018-08-22T09:59:52.531Z,24.53
2018-08-22T10:01:07.202Z,24.81
2018-08-22T10:01:52.292Z,25.1
2018-08-22T10:02:52.587Z,25.02
2018-08-22T10:03:52.361Z,25.31
2018-08-22T10:04:52.494Z,26.28
2018-08-22T10:05:52.433Z,26.36
2018-08-22T10:07:52.755Z,26.36
2018-08-22T10:08:52.532Z,26.05
2018-08-22T10:09:52.587Z,26.64
2018-08-22T10:10:52.860Z,27.5
2018-08-22T10:11:52.977Z,28.54
2018-08-22T10:12:52.926Z,28.53
2018-08-22T10:13:52.959Z,28.23
2018-08-22T10:14:53.145Z,28.92
2018-08-22T10:15:53.034Z,29.21
2018-08-22T10:17:07.744Z,29.2
2018-08-22T10:17:52.836Z,29.48
2018-08-22T10:18:53.129Z,28.53
2018-08-22T10:19:53.171Z,28.74
2018-08-22T10:20:53.207Z,28.45
2018-08-22T10:21:52.974Z,29.22
2018-08-22T10:22:53.271Z,29.59
2018-08-22T10:23:53.310Z,30.55
2018-08-22T10:24:53.334Z,30.82
2018-08-22T10:25:53.364Z,30.91
2018-08-22T10:26:53.446Z,31.78
2018-08-22T10:28:53.464Z,32.81
2018-08-22T10:29:53.242Z,33.77
2018-08-22T10:30:53.531Z,34.03
2018-08-22T10:31:53.564Z,34.42
2018-08-22T10:33:08.383Z,33.17
2018-08-22T10:33:53.630Z,33.46
2018-08-22T10:34:53.666Z,33.95
2018-08-22T10:35:53.696Z,33.46
2018-08-22T10:36:53.733Z,32.97
2018-08-22T10:37:53.768Z,33.95
2018-08-22T10:38:53.795Z,33.83
2018-08-22T10:39:53.828Z,34.14
2018-08-22T10:40:53.858Z,34.34
2018-08-22T10:41:53.894Z,34.92
2018-08-22T10:42:53.923Z,34.71
2018-08-22T10:43:53.958Z,35.1
2018-08-22T10:44:53.990Z,34.14
2018-08-22T10:45:54.021Z,33.87
2018-08-22T10:46:54.055Z,33.5
2018-08-22T10:48:08.798Z,33.5
2018-08-22T10:48:54.120Z,33.4
2018-08-22T10:49:54.148Z,34.92
2018-08-22T10:50:53.925Z,35.22
2018-08-22T10:51:53.958Z,35.02
2018-08-22T10:52:53.990Z,35.14
2018-08-22T10:53:54.026Z,34.57
2018-08-22T10:55:54.341Z,33.77
2018-08-22T10:57:54.405Z,34.75
2018-08-22T10:58:54.436Z,34.83
2018-08-22T10:59:54.469Z,34.92
2018-08-22T11:00:54.503Z,34.71
2018-08-22T11:01:54.650Z,35.51
2018-08-22T11:02:54.565Z,35.39
2018-08-22T11:03:54.610Z,34.73
2018-08-22T11:04:54.375Z,34.73
2018-08-22T11:05:54.665Z,33.87
2018-08-22T11:06:54.693Z,34.71
2018-08-22T11:08:54.748Z,35.85
2018-08-22T11:10:54.811Z,36.32
2018-08-22T11:11:54.590Z,36.22
2018-08-22T11:12:54.874Z,35.44
2018-08-22T11:13:54.903Z,36.22
2018-08-22T11:14:54.932Z,35.65
2018-08-22T11:15:55.352Z,35.26
2018-08-22T11:16:54.994Z,35.46
2018-08-22T11:17:55.078Z,35.53
2018-08-22T11:18:54.796Z,35.25
2018-08-22T11:20:09.748Z,35.25
2018-08-22T11:20:55.118Z,35.99
2018-08-22T11:21:55.144Z,35.5
2018-08-22T11:22:55.182Z,36.08
2018-08-22T11:23:55.206Z,35.91
2018-08-22T11:24:55.235Z,35.71
2018-08-22T11:25:55.265Z,36.38
2018-08-22T11:26:55.298Z,35.61
2018-08-22T11:27:55.324Z,35.81
2018-08-22T11:29:55.388Z,33.82
2018-08-22T11:30:55.418Z,33.83
2018-08-22T11:31:55.186Z,34.32
2018-08-22T11:32:55.472Z,34.71
2018-08-22T11:33:55.503Z,34.91
2018-08-22T11:34:55.537Z,34.99
2018-08-22T11:36:10.226Z,35.18
2018-08-22T11:36:55.336Z,34.69
2018-08-22T11:37:55.623Z,34.79
2018-08-22T11:38:55.396Z,34.42
2018-08-22T11:39:55.682Z,33.93
2018-08-22T11:40:55.711Z,33.83
2018-08-22T11:41:55.741Z,33.17
2018-08-22T11:42:55.770Z,33.17
2018-08-22T11:43:55.543Z,32.78
2018-08-22T11:44:55.830Z,32.78
2018-08-22T11:46:55.632Z,32.31
2018-08-22T11:47:55.919Z,32.58
2018-08-22T11:48:55.948Z,32.5
2018-08-22T11:49:55.980Z,31.92
2018-08-22T11:50:56.006Z,31.84
2018-08-22T11:52:10.699Z,32.01
2018-08-22T11:52:56.067Z,31.72
2018-08-22T11:53:56.095Z,31.52
2018-08-22T11:54:56.129Z,31.82
2018-08-22T11:55:56.181Z,31.92
2018-08-22T11:57:56.214Z,32.78
2018-08-22T11:58:56.244Z,32.96
2018-08-22T12:00:56.304Z,32.96
2018-08-22T12:01:56.517Z,32.76
2018-08-22T12:02:56.367Z,33.43
2018-08-22T12:03:56.134Z,33.14
2018-08-22T12:04:56.426Z,32.84
2018-08-22T12:05:56.453Z,32.86
2018-08-22T12:06:56.481Z,32.75
2018-08-22T12:08:11.173Z,33.33
2018-08-22T12:08:56.640Z,33.51
2018-08-22T12:09:56.311Z,33.51
2018-08-22T12:10:56.597Z,33.7
2018-08-22T12:11:56.629Z,34.66
2018-08-22T12:12:56.399Z,35.13
2018-08-22T12:13:56.686Z,35.03
2018-08-22T12:17:56.804Z,34.68
2018-08-22T12:18:56.831Z,34.19
2018-08-22T12:19:56.604Z,34.39
2018-08-22T12:20:56.891Z,33.82
2018-08-22T12:21:56.923Z,33.92
2018-08-22T12:23:11.730Z,33.92
2018-08-22T12:23:56.979Z,34.09
2018-08-22T12:24:57.007Z,34.21
2018-08-22T12:25:57.037Z,34.88
2018-08-22T12:26:57.065Z,34.29
2018-08-22T12:27:56.838Z,33.8
2018-08-22T12:28:57.173Z,34.27
2018-08-22T12:29:57.154Z,34.27
2018-08-22T12:30:56.929Z,34.27
2018-08-22T12:32:57.244Z,35.05
2018-08-22T12:33:57.270Z,34.47
2018-08-22T12:34:57.300Z,34.56
2018-08-22T12:35:57.068Z,34.17
2018-08-22T12:36:57.356Z,34.08
2018-08-22T12:37:57.385Z,33.59
2018-08-22T12:38:57.414Z,34.17
2018-08-22T12:39:57.445Z,34.16
2018-08-22T12:40:57.474Z,34.16
2018-08-22T12:41:57.505Z,32.91
2018-08-22T12:42:57.527Z,33.2
2018-08-22T12:43:57.558Z,33.31
2018-08-22T12:44:57.589Z,33.41
2018-08-22T12:45:57.617Z,32.84
2018-08-22T12:46:57.387Z,33.04
2018-08-22T12:47:57.675Z,32.84
2018-08-22T12:48:57.702Z,33.04
2018-08-22T12:50:57.503Z,33.04
2018-08-22T12:51:57.531Z,33.04
2018-08-22T12:52:57.815Z,32.57
2018-08-22T12:53:57.846Z,32.76
2018-08-22T12:55:12.538Z,32.37
2018-08-22T12:55:57.902Z,31.79
2018-08-22T12:56:57.935Z,31.88
2018-08-22T12:57:57.704Z,31.79
2018-08-22T12:58:57.989Z,31.6
2018-08-22T12:59:57.762Z,31.8
2018-08-22T13:00:58.048Z,31.8
2018-08-22T13:01:58.081Z,32.18
2018-08-22T13:02:58.106Z,32.26
2018-08-22T13:03:58.139Z,32.92
2018-08-22T13:04:58.165Z,33.22
2018-08-22T13:05:58.201Z,32.55
2018-08-22T13:06:57.967Z,32.94
2018-08-22T13:07:58.248Z,32.73
2018-08-22T13:08:58.283Z,32.53
2018-08-22T13:09:58.053Z,32.53
2018-08-22T13:11:13.056Z,32.84
2018-08-22T13:11:58.366Z,33.61
2018-08-22T13:12:58.395Z,32.73
2018-08-22T13:13:58.424Z,33.41
2018-08-22T13:14:58.451Z,34.19
2018-08-22T13:15:58.480Z,34.29
2018-08-22T13:16:58.654Z,34.19
2018-08-22T13:17:58.540Z,34.17
2018-08-22T13:18:58.575Z,34.56
2018-08-22T13:19:58.595Z,34.95
2018-08-22T13:20:58.633Z,35.05
2018-08-22T13:21:58.396Z,35.15
2018-08-22T13:22:58.692Z,35.34
2018-08-22T13:23:58.799Z,34.68
2018-08-22T13:24:58.750Z,34.78
2018-08-22T13:25:58.773Z,34.68
2018-08-22T13:27:13.461Z,34.78
2018-08-22T13:27:58.825Z,34.58
2018-08-22T13:28:58.860Z,34.89
2018-08-22T13:29:58.884Z,34.99
2018-08-22T13:30:58.953Z,34.31
2018-08-22T13:31:58.940Z,34.01
2018-08-22T13:32:58.978Z,33.82
2018-08-22T13:33:58.742Z,33.82
2018-08-22T13:34:59.027Z,34.01
2018-08-22T13:35:59.057Z,33.73
2018-08-22T13:36:59.087Z,33.93
2018-08-22T13:38:59.215Z,34.99